Time;durP1;ratioP1;P1;durP2;ratioP2;P2;SDS_P1;SDS_P2;PMS_P1;PMS_P2;Temp;Humidity;BMP_temperature;BMP_pressure;BME280_temperature;BME280_humidity;BME280_pressure;Samples;Min_cycle;Max_cycle;Signal;HPM_P1;HPM_P2
2022/01/30 00:00:56;;;;;;;0.73;0.73;;;6.90;99.90;;;;;;5064116;28;20563;-76
2022/01/30 00:03:22;;;;;;;0.30;0.30;;;6.80;99.90;;;;;;5057985;28;20543;-76
2022/01/30 00:05:48;;;;;;;0.10;0.10;;;6.90;99.90;;;;;;5063599;28;20203;-76
2022/01/30 00:08:13;;;;;;;0.13;0.13;;;7.00;99.90;;;;;;5058191;28;20181;-77
2022/01/30 00:10:40;;;;;;;0.80;0.80;;;6.90;99.90;;;;;;5054158;28;20176;-77
2022/01/30 00:13:11;;;;;;;1.53;1.43;;;6.90;99.90;;;;;;5069709;28;20257;-75
2022/01/30 00:15:48;;;;;;;0.90;0.53;;;6.90;99.90;;;;;;5074098;28;20207;-77
2022/01/30 00:20:42;;;;;;;0.23;0.17;;;6.90;99.90;;;;;;5062189;28;20208;-76
2022/01/30 00:25:44;;;;;;;0.20;0.20;;;6.80;99.90;;;;;;5053799;28;20203;-75
2022/01/30 00:28:12;;;;;;;2.10;0.93;;;6.70;99.90;;;;;;5061220;28;20203;-76
2022/01/30 00:30:38;;;;;;;2.70;1.20;;;6.70;99.90;;;;;;5060059;28;20223;-76
2022/01/30 00:33:04;;;;;;;3.10;1.27;;;6.70;99.90;;;;;;5065910;28;20197;-76
2022/01/30 00:35:33;;;;;;;4.43;0.50;;;6.70;99.90;;;;;;5054279;28;20185;-76
2022/01/30 00:37:59;;;;;;;1.80;0.83;;;6.60;99.90;;;;;;5047864;28;20548;-75
2022/01/30 00:40:24;;;;;;;0.30;0.13;;;6.60;99.90;;;;;;5067198;28;20219;-75
2022/01/30 00:42:50;;;;;;;9.97;1.33;;;6.50;99.90;;;;;;5052911;28;20602;-75
2022/01/30 00:45:16;;;;;;;0.83;0.83;;;6.50;99.90;;;;;;5053106;28;20221;-75
2022/01/30 00:47:41;;;;;;;2.07;1.97;;;6.40;99.90;;;;;;5053207;28;20173;-75
2022/01/30 00:50:07;;;;;;;0.87;0.87;;;6.40;99.90;;;;;;5035241;28;20181;-75
2022/01/30 00:52:33;;;;;;;0.30;0.30;;;6.40;99.90;;;;;;5034811;28;20270;-76
2022/01/30 00:54:59;;;;;;;2.73;2.30;;;6.40;99.90;;;;;;5052851;28;20691;-76
2022/01/30 00:57:24;;;;;;;0.10;0.10;;;6.40;99.90;;;;;;5060932;28;20301;-76
2022/01/30 00:59:50;;;;;;;0.20;0.20;;;6.30;99.90;;;;;;5054980;28;20602;-76
2022/01/30 01:02:17;;;;;;;0.10;0.10;;;6.30;99.90;;;;;;5072523;28;20176;-75
2022/01/30 01:04:43;;;;;;;2.20;2.00;;;6.20;99.90;;;;;;5072831;28;20188;-77
2022/01/30 01:07:14;;;;;;;2.00;1.90;;;6.20;99.90;;;;;;5054855;28;20246;-76
2022/01/30 01:09:42;;;;;;;22.20;2.10;;;6.10;99.90;;;;;;5072947;28;20180;-76
2022/01/30 01:25:47;;;;;;;1.20;1.07;;;6.00;99.90;;;;;;5044174;28;20255;-77
2022/01/30 01:28:13;;;;;;;0.60;0.60;;;6.00;99.90;;;;;;5034562;28;20189;-77
2022/01/30 01:30:39;;;;;;;0.13;0.13;;;5.90;99.90;;;;;;5034077;28;20184;-77
2022/01/30 01:33:05;;;;;;;0.17;0.17;;;5.90;99.90;;;;;;5052144;28;20201;-77
2022/01/30 01:35:31;;;;;;;2.13;1.93;;;5.80;99.90;;;;;;5040507;28;20269;-76
2022/01/30 01:37:57;;;;;;;0.13;0.13;;;5.80;99.90;;;;;;5060513;28;20253;-77
2022/01/30 01:40:23;;;;;;;7.90;3.80;;;5.70;99.90;;;;;;5071949;28;20652;-77
2022/01/30 01:42:48;;;;;;;2.37;1.20;;;5.80;99.90;;;;;;5041931;28;20597;-77
2022/01/30 01:45:19;;;;;;;0.67;0.60;;;5.80;99.90;;;;;;5072499;28;20200;-77
2022/01/30 01:47:45;;;;;;;0.67;0.60;;;5.80;99.90;;;;;;5053002;28;20211;-77
2022/01/30 01:50:17;;;;;;;2.83;1.97;;;5.80;99.90;;;;;;5052444;28;20682;-78
2022/01/30 01:52:44;;;;;;;1.47;0.77;;;5.80;99.90;;;;;;5051689;28;20300;-76
2022/01/30 01:55:10;;;;;;;3.33;2.17;;;5.70;99.90;;;;;;5051109;28;20205;-77
2022/01/30 01:57:35;;;;;;;0.20;0.20;;;5.80;99.90;;;;;;5034402;28;20177;-77
2022/01/30 02:00:02;;;;;;;1.07;0.80;;;5.80;99.90;;;;;;5052181;28;20644;-76
2022/01/30 02:02:28;;;;;;;1.27;1.20;;;5.80;99.90;;;;;;5051998;28;20549;-77
2022/01/30 02:04:58;;;;;;;14.63;3.00;;;5.70;99.90;;;;;;5049767;28;20226;-77
2022/01/30 02:10:17;;;;;;;0.43;0.43;;;5.70;99.90;;;;;;5058863;28;20179;-77
2022/01/30 02:12:49;;;;;;;14.83;0.70;;;5.70;99.90;;;;;;5053788;28;20290;-76
2022/01/30 02:26:02;;;;;;;0.30;0.30;;;5.60;99.90;;;;;;5048758;28;20339;-75
2022/01/30 02:28:30;;;;;;;0.60;0.60;;;5.60;99.90;;;;;;5043131;28;20184;-74
2022/01/30 02:31:03;;;;;;;6.80;1.40;;;5.60;99.90;;;;;;5061996;28;20174;-75
2022/01/30 02:33:29;;;;;;;12.13;1.90;;;5.60;99.90;;;;;;5055365;28;20200;-76
2022/01/30 02:35:54;;;;;;;0.00;0.00;;;5.60;99.90;;;;;;5054329;28;20687;-76
2022/01/30 02:38:22;;;;;;;4.70;3.00;;;5.50;99.90;;;;;;5053840;28;20729;-76
2022/01/30 02:40:49;;;;;;;4.70;2.73;;;5.50;99.90;;;;;;5051690;28;20583;-76
2022/01/30 02:43:19;;;;;;;0.87;0.87;;;5.40;99.90;;;;;;5041857;28;20177;-76
2022/01/30 02:45:51;;;;;;;19.70;2.27;;;5.40;99.90;;;;;;5070463;28;20207;-76
2022/01/30 02:48:29;;;;;;;0.20;0.20;;;5.40;99.90;;;;;;5071805;28;20532;-76
2022/01/30 02:51:07;;;;;;;0.50;0.50;;;5.50;99.90;;;;;;5053556;28;20705;-76
2022/01/30 02:53:38;;;;;;;1.23;1.23;;;5.40;99.90;;;;;;5068455;28;20198;-76
2022/01/30 02:56:04;;;;;;;1.03;1.03;;;5.40;99.90;;;;;;5051417;28;20220;-76
2022/01/30 02:58:30;;;;;;;0.00;0.00;;;5.40;99.90;;;;;;5054984;28;20208;-76
2022/01/30 03:00:55;;;;;;;1.93;1.10;;;5.40;99.90;;;;;;5053311;28;20179;-76
2022/01/30 03:03:21;;;;;;;1.67;1.57;;;5.40;99.90;;;;;;5053977;28;20189;-76
2022/01/30 03:05:46;;;;;;;0.30;0.30;;;5.40;99.90;;;;;;5052498;28;20208;-76
2022/01/30 03:08:12;;;;;;;1.50;1.40;;;5.40;99.90;;;;;;5068590;28;20188;-77
2022/01/30 03:10:37;;;;;;;0.20;0.20;;;5.40;99.90;;;;;;5055131;28;20841;-76
2022/01/30 03:13:03;;;;;;;1.20;1.20;;;5.30;99.90;;;;;;5054515;28;20205;-76
2022/01/30 03:15:29;;;;;;;0.30;0.30;;;5.40;99.90;;;;;;5046734;28;20288;-76
2022/01/30 03:17:54;;;;;;;0.60;0.60;;;5.40;99.90;;;;;;5040506;28;20177;-76
2022/01/30 03:20:21;;;;;;;28.53;0.90;;;5.40;99.90;;;;;;5064400;28;20407;-76
2022/01/30 03:22:47;;;;;;;0.67;0.67;;;5.40;99.90;;;;;;5058099;28;20169;-76
2022/01/30 03:25:12;;;;;;;0.47;0.40;;;5.30;99.90;;;;;;5037111;28;20405;-76
2022/01/30 03:27:41;;;;;;;4.17;0.30;;;5.30;99.90;;;;;;5054459;28;20218;-76
2022/01/30 03:30:13;;;;;;;1.70;0.97;;;5.30;99.90;;;;;;5064854;28;20278;-76
2022/01/30 03:32:39;;;;;;;1.37;0.73;;;5.30;99.90;;;;;;5071799;28;20273;-76
2022/01/30 03:35:05;;;;;;;1.03;1.03;;;5.30;99.90;;;;;;5074677;28;20201;-76
2022/01/30 03:37:31;;;;;;;3.33;0.30;;;5.30;99.90;;;;;;5070845;28;20260;-76
2022/01/30 03:39:56;;;;;;;0.23;0.23;;;5.30;99.90;;;;;;5036828;28;20330;-76
2022/01/30 03:42:22;;;;;;;3.07;2.77;;;5.30;99.90;;;;;;5071405;28;20256;-76
2022/01/30 03:47:24;;;;;;;0.20;0.20;;;5.30;99.90;;;;;;5092545;22;20228;-78
2022/01/30 03:49:50;;;;;;;3.10;1.90;;;5.20;99.90;;;;;;5074177;28;20173;-77
2022/01/30 03:52:16;;;;;;;0.20;0.20;;;5.20;99.90;;;;;;5073606;28;20606;-77
2022/01/30 03:54:42;;;;;;;4.17;1.80;;;5.20;99.90;;;;;;5074114;28;20174;-77
2022/01/30 03:57:07;;;;;;;12.83;1.33;;;5.20;99.90;;;;;;5074241;28;20683;-77
2022/01/30 03:59:33;;;;;;;5.53;1.17;;;5.10;99.90;;;;;;5074150;28;20199;-77
2022/01/30 04:01:59;;;;;;;0.20;0.20;;;5.10;99.90;;;;;;5073964;28;20258;-77
2022/01/30 04:04:25;;;;;;;8.80;3.27;;;5.10;99.90;;;;;;5074368;28;20192;-79
2022/01/30 04:06:50;;;;;;;0.10;0.10;;;5.10;99.90;;;;;;5074100;28;20209;-79
2022/01/30 04:09:16;;;;;;;24.33;1.90;;;5.00;99.90;;;;;;5074167;28;20258;-78
2022/01/30 04:11:42;;;;;;;0.37;0.37;;;5.10;99.90;;;;;;5073535;28;20200;-78
2022/01/30 04:14:08;;;;;;;1.37;0.80;;;5.00;99.90;;;;;;5055869;28;20559;-78
2022/01/30 04:16:34;;;;;;;0.57;0.57;;;5.00;99.90;;;;;;5055575;28;20572;-78
2022/01/30 04:19:00;;;;;;;0.57;0.57;;;5.00;99.90;;;;;;5073228;28;20202;-77
2022/01/30 04:21:25;;;;;;;2.83;1.87;;;5.00;99.90;;;;;;5073411;28;20254;-78
2022/01/30 04:23:51;;;;;;;1.00;0.77;;;5.00;99.90;;;;;;5084566;28;20175;-77
2022/01/30 04:26:16;;;;;;;0.40;0.40;;;5.10;99.90;;;;;;5084148;28;20201;-78
2022/01/30 04:28:42;;;;;;;1.07;1.07;;;5.10;99.90;;;;;;5073607;28;20187;-78
2022/01/30 04:31:08;;;;;;;0.83;0.67;;;5.10;99.90;;;;;;5055324;28;20181;-78
2022/01/30 04:33:33;;;;;;;2.70;2.50;;;5.20;99.90;;;;;;5055526;28;20215;-78
2022/01/30 04:36:07;;;;;;;0.20;0.20;;;5.10;99.90;;;;;;5073475;28;20211;-78
2022/01/30 04:38:50;;;;;;;9.00;3.13;;;5.00;99.90;;;;;;5073443;28;20180;-79
2022/01/30 05:07:47;;;;;;;2.30;2.10;;;5.30;99.90;;;;;;5073076;28;20172;-79
2022/01/30 05:10:13;;;;;;;0.10;0.10;;;5.30;99.90;;;;;;5072854;28;20627;-79
2022/01/30 05:12:50;;;;;;;1.70;1.27;;;5.30;99.90;;;;;;5055076;28;20235;-80
2022/01/30 05:15:20;;;;;;;0.20;0.20;;;5.30;99.90;;;;;;5073712;28;20283;-78
2022/01/30 05:17:46;;;;;;;0.53;0.53;;;5.30;99.90;;;;;;5073099;28;20169;-78
2022/01/30 05:20:13;;;;;;;5.80;1.20;;;5.30;99.90;;;;;;5073156;28;20175;-78
2022/01/30 05:22:39;;;;;;;0.50;0.50;;;5.20;99.90;;;;;;5055846;28;20837;-79
2022/01/30 05:25:05;;;;;;;45.30;2.20;;;5.30;99.90;;;;;;5081271;28;20175;-78
2022/01/30 05:27:30;;;;;;;1.80;1.70;;;5.30;99.90;;;;;;5077103;28;20176;-78
2022/01/30 05:29:56;;;;;;;0.77;0.77;;;5.30;99.90;;;;;;5074105;28;20184;-78
2022/01/30 05:32:22;;;;;;;0.00;0.00;;;5.30;99.90;;;;;;5074636;28;20227;-77
2022/01/30 05:34:48;;;;;;;3.13;0.83;;;5.30;99.90;;;;;;5073830;28;20176;-78
2022/01/30 05:37:18;;;;;;;9.50;5.30;;;5.20;99.90;;;;;;5072135;28;20242;-77
2022/01/30 05:39:44;;;;;;;0.53;0.53;;;5.20;99.90;;;;;;5054120;28;20183;-78
2022/01/30 05:42:12;;;;;;;1.50;1.40;;;5.10;99.90;;;;;;5072024;28;20184;-78
2022/01/30 05:44:47;;;;;;;1.30;1.30;;;5.00;99.90;;;;;;5071607;28;20263;-78
2022/01/30 05:47:22;;;;;;;0.10;0.10;;;5.00;99.90;;;;;;5071554;28;20208;-78
2022/01/30 05:49:48;;;;;;;0.30;0.30;;;5.10;99.90;;;;;;5054276;28;20180;-78
2022/01/30 05:52:13;;;;;;;1.33;1.33;;;5.00;99.90;;;;;;5071961;28;20567;-78
2022/01/30 05:54:39;;;;;;;0.20;0.20;;;4.90;99.90;;;;;;5071570;28;20191;-78
2022/01/30 05:57:05;;;;;;;1.67;1.57;;;4.90;99.90;;;;;;5071654;28;20204;-78
2022/01/30 05:59:30;;;;;;;10.20;1.50;;;4.90;99.90;;;;;;5071984;28;20180;-78
2022/01/30 06:01:56;;;;;;;0.33;0.33;;;4.80;99.90;;;;;;5071396;28;20551;-79
2022/01/30 06:04:21;;;;;;;2.53;2.43;;;4.80;99.90;;;;;;5071469;28;20674;-78
2022/01/30 06:06:51;;;;;;;1.20;0.93;;;4.80;99.90;;;;;;5071528;28;20204;-78
2022/01/30 06:11:44;;;;;;;0.77;0.77;;;4.80;99.90;;;;;;5072790;28;20291;-77
2022/01/30 06:14:10;;;;;;;0.10;0.10;;;4.70;99.90;;;;;;5054367;28;20250;-78
2022/01/30 06:16:36;;;;;;;0.57;0.57;;;4.70;99.90;;;;;;5091962;28;20288;-78
2022/01/30 06:19:01;;;;;;;0.00;0.00;;;4.60;99.90;;;;;;5074572;28;20175;-78
2022/01/30 06:21:28;;;;;;;1.80;0.63;;;4.70;99.90;;;;;;5091667;28;20192;-78
2022/01/30 06:23:54;;;;;;;0.57;0.57;;;4.70;99.90;;;;;;5091294;28;20175;-78
2022/01/30 06:26:19;;;;;;;2.33;0.93;;;4.60;99.90;;;;;;5085587;28;20199;-78
2022/01/30 06:28:45;;;;;;;0.00;0.00;;;4.60;99.90;;;;;;5071736;28;20636;-77
2022/01/30 06:31:10;;;;;;;0.57;0.57;;;4.70;99.90;;;;;;5076820;28;20645;-78
2022/01/30 06:33:36;;;;;;;0.00;0.00;;;4.70;99.90;;;;;;5079006;28;20233;-78
2022/01/30 06:36:02;;;;;;;0.10;0.10;;;4.60;99.90;;;;;;5071231;28;20349;-77
2022/01/30 06:38:27;;;;;;;6.70;2.43;;;4.60;99.90;;;;;;5071456;28;20173;-78
2022/01/30 06:40:53;;;;;;;0.70;0.70;;;4.60;99.90;;;;;;5074795;28;20232;-78
2022/01/30 06:43:18;;;;;;;0.00;0.00;;;4.60;99.90;;;;;;5077915;28;20195;-77
2022/01/30 06:45:44;;;;;;;0.53;0.40;;;4.60;99.90;;;;;;5060009;28;20216;-77
2022/01/30 06:48:10;;;;;;;1.40;1.30;;;4.70;99.90;;;;;;5078219;28;20184;-78
2022/01/30 06:50:35;;;;;;;8.70;1.83;;;4.70;99.90;;;;;;5078067;28;20176;-77
2022/01/30 06:53:01;;;;;;;1.80;1.07;;;4.80;99.90;;;;;;5077351;28;20206;-77
2022/01/30 06:55:27;;;;;;;0.33;0.33;;;4.70;99.90;;;;;;5077851;28;20192;-77
2022/01/30 06:57:52;;;;;;;0.30;0.30;;;4.70;99.90;;;;;;5077739;28;20183;-77
2022/01/30 07:00:18;;;;;;;8.00;1.93;;;4.70;99.90;;;;;;5077878;28;20179;-78
2022/01/30 07:02:43;;;;;;;6.23;2.13;;;4.70;99.90;;;;;;5077435;28;20267;-77
2022/01/30 07:05:09;;;;;;;0.10;0.10;;;4.70;99.90;;;;;;5077404;28;20203;-78
2022/01/30 07:07:35;;;;;;;5.50;0.80;;;4.80;99.90;;;;;;5059536;28;20180;-78
2022/01/30 07:10:01;;;;;;;6.63;0.87;;;4.80;99.90;;;;;;5077176;28;20651;-77
2022/01/30 07:12:27;;;;;;;3.93;2.07;;;4.70;99.90;;;;;;5077128;28;20218;-77
2022/01/30 07:14:53;;;;;;;4.83;1.63;;;4.70;99.90;;;;;;5059304;28;20308;-76
2022/01/30 07:17:18;;;;;;;1.23;0.60;;;4.70;99.90;;;;;;5061429;28;20203;-76
2022/01/30 07:19:44;;;;;;;1.00;1.00;;;4.60;99.90;;;;;;5059499;28;20229;-77
2022/01/30 07:22:09;;;;;;;5.07;2.37;;;4.60;99.90;;;;;;5077097;28;20172;-78
2022/01/30 07:24:35;;;;;;;0.97;0.97;;;4.50;99.90;;;;;;5081969;28;20203;-78
2022/01/30 07:27:00;;;;;;;0.33;0.33;;;4.60;99.90;;;;;;5086322;28;20236;-77
2022/01/30 07:29:26;;;;;;;0.43;0.20;;;4.60;99.90;;;;;;5077667;28;20209;-78
2022/01/30 07:31:52;;;;;;;0.00;0.00;;;4.60;99.90;;;;;;5077165;28;20192;-77
2022/01/30 07:34:20;;;;;;;0.40;0.40;;;4.60;99.90;;;;;;5077238;28;20180;-78
2022/01/30 07:36:46;;;;;;;0.70;0.70;;;4.60;99.90;;;;;;5077230;28;20195;-76
2022/01/30 07:39:12;;;;;;;0.20;0.20;;;4.70;99.90;;;;;;5077330;28;20225;-78
2022/01/30 07:41:38;;;;;;;0.50;0.50;;;4.80;99.90;;;;;;5077153;28;20165;-78
2022/01/30 07:44:04;;;;;;;1.50;1.07;;;4.80;99.90;;;;;;5077741;28;20188;-79
2022/01/30 07:46:30;;;;;;;0.83;0.83;;;4.80;99.90;;;;;;5077121;28;20204;-77
2022/01/30 07:48:56;;;;;;;0.57;0.57;;;4.80;99.90;;;;;;5077221;28;20172;-77
2022/01/30 07:51:22;;;;;;;1.90;1.23;;;4.80;99.90;;;;;;5061681;28;20668;-78
2022/01/30 07:53:47;;;;;;;0.40;0.23;;;4.70;99.90;;;;;;5074504;28;20212;-81
2022/01/30 07:56:13;;;;;;;0.27;0.27;;;4.70;99.90;;;;;;5075481;28;20238;-78
2022/01/30 07:58:39;;;;;;;0.43;0.43;;;4.70;99.90;;;;;;5079727;28;20604;-79
2022/01/30 08:01:05;;;;;;;0.10;0.10;;;4.60;99.90;;;;;;5076754;28;20172;-79
2022/01/30 08:03:30;;;;;;;0.93;0.93;;;4.70;99.90;;;;;;5094307;28;20278;-78
2022/01/30 08:05:56;;;;;;;0.83;0.80;;;4.80;99.90;;;;;;5096268;28;20749;-81
2022/01/30 08:08:22;;;;;;;0.30;0.30;;;4.80;99.90;;;;;;5095377;28;20184;-77
2022/01/30 08:10:47;;;;;;;0.90;0.83;;;4.80;99.90;;;;;;5094395;28;20179;-78
2022/01/30 08:13:14;;;;;;;0.60;0.60;;;4.90;99.90;;;;;;5093532;28;20195;-78
2022/01/30 08:15:40;;;;;;;2.43;0.13;;;4.90;99.90;;;;;;5086908;28;20188;-78
2022/01/30 08:18:05;;;;;;;0.37;0.37;;;4.90;99.90;;;;;;5076192;28;20173;-78
2022/01/30 08:20:31;;;;;;;4.10;1.30;;;5.00;99.90;;;;;;5073486;28;20539;-77
2022/01/30 08:22:56;;;;;;;1.20;1.03;;;5.00;99.90;;;;;;5073265;28;20173;-78
2022/01/30 08:25:24;;;;;;;1.17;0.83;;;5.10;99.90;;;;;;5084783;28;20787;-78
2022/01/30 08:27:51;;;;;;;3.23;0.57;;;5.00;99.90;;;;;;5056713;28;20180;-78
2022/01/30 08:30:16;;;;;;;0.43;0.43;;;5.10;99.90;;;;;;5073495;28;20578;-78
2022/01/30 08:32:45;;;;;;;0.00;0.00;;;5.20;99.90;;;;;;5086067;28;20249;-80
2022/01/30 08:35:13;;;;;;;0.50;0.50;;;5.20;99.90;;;;;;5073206;28;20207;-78
2022/01/30 08:37:39;;;;;;;3.07;1.53;;;5.10;99.90;;;;;;5074677;28;20592;-78
2022/01/30 08:40:11;;;;;;;0.63;0.63;;;5.00;99.90;;;;;;5075241;28;20176;-78
2022/01/30 08:42:37;;;;;;;0.10;0.10;;;5.00;99.90;;;;;;5093611;28;20175;-77
2022/01/30 08:45:04;;;;;;;4.90;1.13;;;4.90;99.90;;;;;;5093254;28;20179;-78
2022/01/30 08:47:30;;;;;;;0.20;0.20;;;5.00;99.90;;;;;;5094259;28;20611;-78
2022/01/30 08:49:55;;;;;;;0.10;0.10;;;5.10;99.90;;;;;;5076065;28;20262;-79
2022/01/30 08:52:21;;;;;;;3.73;2.67;;;5.20;99.90;;;;;;5093233;28;20252;-78
2022/01/30 08:54:49;;;;;;;6.17;1.30;;;5.30;99.90;;;;;;5094366;28;20723;-79
2022/01/30 08:57:15;;;;;;;18.77;1.30;;;5.30;99.90;;;;;;5094436;28;20245;-79
2022/01/30 08:59:40;;;;;;;0.00;0.00;;;5.40;99.90;;;;;;5083827;28;20574;-78
2022/01/30 09:02:07;;;;;;;3.10;1.50;;;5.50;99.90;;;;;;5080314;28;20179;-80
2022/01/30 09:04:32;;;;;;;20.27;2.07;;;5.60;99.90;;;;;;5093134;28;20181;-79
2022/01/30 09:06:58;;;;;;;6.90;2.30;;;5.70;99.90;;;;;;5093626;28;20562;-79
2022/01/30 09:09:23;;;;;;;0.50;0.50;;;5.70;99.90;;;;;;5075527;28;20219;-79
2022/01/30 09:11:49;;;;;;;0.10;0.10;;;5.60;99.90;;;;;;5075056;28;20199;-79
2022/01/30 09:14:15;;;;;;;0.20;0.20;;;5.60;99.90;;;;;;5094229;28;20187;-78
2022/01/30 09:16:42;;;;;;;0.30;0.30;;;5.60;99.90;;;;;;5077844;28;20226;-78
2022/01/30 09:19:08;;;;;;;0.27;0.27;;;5.60;99.90;;;;;;5093037;28;20172;-77
2022/01/30 09:21:33;;;;;;;2.97;2.47;;;5.60;99.90;;;;;;5093280;28;20665;-76
2022/01/30 09:23:59;;;;;;;0.40;0.40;;;5.70;99.90;;;;;;5092695;28;20180;-77
2022/01/30 09:26:24;;;;;;;0.10;0.10;;;5.80;99.90;;;;;;5074818;28;20290;-78
2022/01/30 09:28:50;;;;;;;0.20;0.20;;;5.90;99.90;;;;;;5068849;28;20657;-76
2022/01/30 09:31:16;;;;;;;41.83;2.67;;;5.90;99.90;;;;;;5080007;28;20187;-75
2022/01/30 09:33:42;;;;;;;0.43;0.43;;;5.90;99.90;;;;;;5085949;28;20199;-77
2022/01/30 09:36:08;;;;;;;1.60;1.50;;;6.00;99.90;;;;;;5091249;28;20691;-76
2022/01/30 09:38:33;;;;;;;0.27;0.27;;;6.10;99.90;;;;;;5076283;28;20180;-77
2022/01/30 09:40:59;;;;;;;0.10;0.10;;;6.10;99.90;;;;;;5084574;28;20659;-78
2022/01/30 09:43:27;;;;;;;0.97;0.97;;;6.10;99.90;;;;;;5081211;28;20318;-75
2022/01/30 09:45:53;;;;;;;0.00;0.00;;;6.00;99.90;;;;;;5109067;22;20342;-71
2022/01/30 09:48:19;;;;;;;0.23;0.23;;;6.00;99.90;;;;;;5087254;28;20274;-74
2022/01/30 09:50:46;;;;;;;10.93;1.43;;;6.00;99.90;;;;;;5067125;28;20309;-75
2022/01/30 09:53:12;;;;;;;0.10;0.10;;;6.10;99.90;;;;;;5066858;28;20639;-74
2022/01/30 09:55:37;;;;;;;4.53;3.23;;;6.20;99.90;;;;;;5078493;28;20180;-72
2022/01/30 09:58:04;;;;;;;9.23;2.20;;;6.20;99.90;;;;;;5087090;28;20278;-72
2022/01/30 10:00:30;;;;;;;0.37;0.37;;;6.30;99.90;;;;;;5052911;28;20188;-74
2022/01/30 10:02:55;;;;;;;0.33;0.30;;;6.40;99.90;;;;;;5067364;28;20173;-73
2022/01/30 10:05:21;;;;;;;2.10;1.40;;;6.30;99.90;;;;;;5078187;28;20180;-74
2022/01/30 10:07:52;;;;;;;5.23;1.27;;;6.30;99.90;;;;;;5072778;28;20659;-74
2022/01/30 10:10:22;;;;;;;0.07;0.07;;;6.50;99.90;;;;;;5077571;28;20176;-77
2022/01/30 10:12:59;;;;;;;0.43;0.43;;;6.80;99.90;;;;;;5079721;28;20694;-76
2022/01/30 10:15:24;;;;;;;0.10;0.10;;;6.80;99.90;;;;;;5071227;28;20229;-74
2022/01/30 10:17:50;;;;;;;1.47;1.20;;;6.60;99.90;;;;;;5072470;28;20606;-78
2022/01/30 10:20:18;;;;;;;0.20;0.20;;;6.50;99.90;;;;;;5072479;28;20196;-75
2022/01/30 10:22:49;;;;;;;0.43;0.43;;;6.60;99.90;;;;;;5070236;28;20647;-75
2022/01/30 10:25:24;;;;;;;4.33;2.60;;;6.80;99.90;;;;;;5063436;28;20266;-74
2022/01/30 10:28:03;;;;;;;0.30;0.30;;;6.90;99.90;;;;;;5079398;28;20694;-75
2022/01/30 10:30:29;;;;;;;3.90;1.90;;;6.80;99.90;;;;;;5069753;28;20179;-75
2022/01/30 10:32:56;;;;;;;16.33;2.63;;;6.80;99.90;;;;;;5058572;28;20208;-75
2022/01/30 10:35:22;;;;;;;4.90;0.83;;;6.90;99.90;;;;;;5078602;28;20179;-75
2022/01/30 10:37:48;;;;;;;1.03;1.03;;;7.10;99.90;;;;;;5080404;28;20196;-75
2022/01/30 10:40:23;;;;;;;0.03;0.03;;;7.40;99.90;;;;;;5063871;28;20169;-75
2022/01/30 10:42:50;;;;;;;0.47;0.47;;;7.50;99.90;;;;;;5047144;28;20192;-75
2022/01/30 10:45:19;;;;;;;0.87;0.30;;;7.40;99.90;;;;;;5068960;28;20267;-74
2022/01/30 10:47:45;;;;;;;0.87;0.87;;;7.40;99.90;;;;;;5047643;28;20224;-74
2022/01/30 10:50:12;;;;;;;4.23;1.80;;;7.20;99.90;;;;;;5061667;28;20205;-74
2022/01/30 10:53:01;;;;;;;0.30;0.30;;;7.30;99.90;;;;;;5051113;28;20197;-75
2022/01/30 10:55:41;;;;;;;0.97;0.97;;;7.30;99.90;;;;;;5070291;28;20181;-72
2022/01/30 10:58:09;;;;;;;0.77;0.77;;;7.20;99.90;;;;;;5052717;28;20200;-73
2022/01/30 11:00:36;;;;;;;1.27;1.03;;;7.10;99.90;;;;;;5067252;28;20180;-74
2022/01/30 11:03:01;;;;;;;5.27;2.90;;;7.30;99.90;;;;;;5079651;28;20226;-74
2022/01/30 11:05:27;;;;;;;8.03;1.47;;;7.70;99.90;;;;;;5077109;28;20217;-75
2022/01/30 11:07:52;;;;;;;1.60;1.47;;;7.90;99.90;;;;;;5076955;28;20207;-75
2022/01/30 11:10:25;;;;;;;1.07;1.07;;;7.80;99.90;;;;;;5053682;28;20243;-75
2022/01/30 11:13:08;;;;;;;5.63;4.50;;;7.70;99.90;;;;;;5043326;28;20200;-75
2022/01/30 11:15:39;;;;;;;0.40;0.40;;;7.60;99.90;;;;;;5067986;28;20214;-75
2022/01/30 11:18:05;;;;;;;2.00;0.77;;;7.40;99.90;;;;;;5049177;28;20568;-75
2022/01/30 11:20:34;;;;;;;0.87;0.87;;;7.30;99.90;;;;;;5069224;28;20251;-74
2022/01/30 11:23:03;;;;;;;5.60;0.83;;;7.20;99.90;;;;;;5051978;28;20181;-72
2022/01/30 11:25:37;;;;;;;0.20;0.20;;;7.20;99.90;;;;;;5068383;28;20707;-75
2022/01/30 11:28:05;;;;;;;0.67;0.67;;;7.50;99.90;;;;;;5083033;28;20724;-75
2022/01/30 11:30:34;;;;;;;1.77;0.97;;;7.60;99.90;;;;;;5048788;28;20185;-74
2022/01/30 11:33:00;;;;;;;0.93;0.60;;;8.10;99.90;;;;;;5051320;28;20276;-75
2022/01/30 11:35:27;;;;;;;9.53;1.40;;;8.70;99.90;;;;;;5074677;28;20177;-75
2022/01/30 11:37:53;;;;;;;2.73;1.80;;;9.00;99.90;;;;;;5037072;28;20196;-75
2022/01/30 11:40:20;;;;;;;0.80;0.80;;;9.60;99.90;;;;;;5037131;28;20529;-75
2022/01/30 11:42:49;;;;;;;0.70;0.70;;;9.80;99.90;;;;;;5054444;28;20267;-75
2022/01/30 11:45:27;;;;;;;0.83;0.83;;;10.10;99.90;;;;;;5036611;28;20185;-74
2022/01/30 11:48:14;;;;;;;6.47;3.60;;;10.20;99.90;;;;;;5036305;28;20213;-75
2022/01/30 11:50:40;;;;;;;4.53;3.43;;;9.70;99.90;;;;;;5054682;28;20318;-75
2022/01/30 11:53:10;;;;;;;2.17;1.97;;;9.20;99.90;;;;;;5053884;28;20263;-75
2022/01/30 11:55:40;;;;;;;6.90;2.50;;;8.90;99.90;;;;;;5054367;28;20636;-75
2022/01/30 11:58:06;;;;;;;1.63;1.47;;;8.30;99.90;;;;;;5053999;28;20192;-74
2022/01/30 12:00:37;;;;;;;1.40;0.47;;;8.00;99.90;;;;;;5060549;28;20173;-75
2022/01/30 12:03:25;;;;;;;3.60;0.57;;;8.00;99.90;;;;;;5073963;28;20557;-75
2022/01/30 12:05:51;;;;;;;1.40;1.30;;;8.10;99.90;;;;;;5074495;28;20680;-75
2022/01/30 12:08:45;;;;;;;2.83;1.43;;;8.00;99.90;;;;;;5074209;28;20704;-75
2022/01/30 12:11:39;;;;;;;5.63;0.43;;;8.00;99.90;;;;;;5074052;28;20241;-75
2022/01/30 12:14:12;;;;;;;3.70;2.93;;;8.50;99.90;;;;;;5074102;28;20211;-75
2022/01/30 12:16:49;;;;;;;4.23;0.67;;;8.70;99.90;;;;;;5057266;28;20570;-75
2022/01/30 12:19:37;;;;;;;0.20;0.20;;;8.40;99.90;;;;;;5073883;28;20225;-75
2022/01/30 12:22:18;;;;;;;1.43;0.57;;;9.30;99.90;;;;;;5079660;28;20188;-75
2022/01/30 12:24:45;;;;;;;2.43;1.93;;;9.10;99.90;;;;;;5074110;28;20195;-75
2022/01/30 12:27:11;;;;;;;0.93;0.40;;;8.50;99.90;;;;;;5055672;28;20291;-75
2022/01/30 12:29:57;;;;;;;0.33;0.33;;;8.20;99.90;;;;;;5074073;28;20607;-74
2022/01/30 12:32:22;;;;;;;0.30;0.30;;;8.30;99.90;;;;;;5070434;28;20691;-75
2022/01/30 12:34:59;;;;;;;3.30;2.03;;;8.70;99.90;;;;;;5053628;28;20306;-73
2022/01/30 12:37:37;;;;;;;2.60;1.90;;;8.30;99.90;;;;;;5053764;28;20202;-75
2022/01/30 12:40:19;;;;;;;5.93;2.27;;;8.10;99.90;;;;;;5047336;28;20651;-75
2022/01/30 12:42:45;;;;;;;0.67;0.67;;;7.90;99.90;;;;;;5064504;28;20259;-75
2022/01/30 12:45:12;;;;;;;4.97;2.13;;;7.60;99.90;;;;;;5052969;28;20607;-75
2022/01/30 12:47:48;;;;;;;18.20;2.37;;;7.50;99.90;;;;;;5053385;28;20311;-75
2022/01/30 12:50:15;;;;;;;4.10;1.53;;;7.60;99.90;;;;;;5053487;28;20240;-75
2022/01/30 12:52:41;;;;;;;2.90;2.67;;;7.90;99.90;;;;;;5035059;28;20291;-75
2022/01/30 12:55:11;;;;;;;2.73;2.30;;;7.90;99.90;;;;;;5053230;28;20210;-75
2022/01/30 12:57:38;;;;;;;3.30;1.10;;;8.60;99.90;;;;;;5035102;28;20197;-76
2022/01/30 13:00:07;;;;;;;0.17;0.17;;;8.70;99.90;;;;;;5064657;28;20670;-74
2022/01/30 13:02:39;;;;;;;2.00;1.17;;;8.30;99.90;;;;;;5070108;28;20241;-75
2022/01/30 13:05:14;;;;;;;4.33;1.13;;;8.30;99.90;;;;;;5070033;28;20168;-75
2022/01/30 13:07:51;;;;;;;3.07;1.60;;;8.40;99.90;;;;;;5066939;28;20197;-74
2022/01/30 13:10:16;;;;;;;0.83;0.83;;;8.80;99.90;;;;;;5063071;28;20200;-75
2022/01/30 13:12:44;;;;;;;1.50;1.20;;;9.00;99.90;;;;;;5050244;28;20686;-75
2022/01/30 13:15:16;;;;;;;3.10;2.33;;;9.80;99.90;;;;;;5051840;28;20214;-75
2022/01/30 13:17:42;;;;;;;0.43;0.43;;;9.60;99.90;;;;;;5053030;28;20193;-75
2022/01/30 13:20:09;;;;;;;3.97;0.83;;;9.40;99.90;;;;;;5052648;28;20259;-75
2022/01/30 13:22:43;;;;;;;0.20;0.20;;;8.80;99.90;;;;;;5052200;28;20181;-75
2022/01/30 13:25:17;;;;;;;0.33;0.33;;;8.70;99.90;;;;;;5062175;28;20184;-75
2022/01/30 13:27:45;;;;;;;0.73;0.73;;;8.10;99.90;;;;;;5072765;28;20210;-75
2022/01/30 13:30:22;;;;;;;5.40;2.20;;;7.70;99.90;;;;;;5072626;28;20172;-74
2022/01/30 13:32:48;;;;;;;0.43;0.43;;;7.50;99.90;;;;;;5066380;28;20533;-76
2022/01/30 13:35:16;;;;;;;0.90;0.90;;;7.40;99.90;;;;;;5034372;28;20173;-75
2022/01/30 13:37:43;;;;;;;13.57;1.27;;;8.80;99.90;;;;;;5052714;28;20215;-75
2022/01/30 13:40:24;;;;;;;7.23;1.20;;;9.80;99.90;;;;;;5052766;28;20187;-75
2022/01/30 13:42:59;;;;;;;3.77;2.63;;;10.60;99.90;;;;;;5060483;28;20172;-75
2022/01/30 13:48:24;;;;;;;1.63;1.53;;;11.60;99.90;;;;;;5072606;28;20242;-75
2022/01/30 13:50:53;;;;;;;1.63;1.53;;;11.80;99.90;;;;;;5066188;28;20181;-75
2022/01/30 13:53:25;;;;;;;4.50;1.13;;;11.90;99.90;;;;;;5069227;28;20214;-76
2022/01/30 13:55:52;;;;;;;0.70;0.70;;;11.60;99.90;;;;;;5071118;28;20167;-76
2022/01/30 13:58:20;;;;;;;5.60;1.27;;;11.60;99.90;;;;;;5058271;28;20556;-74
2022/01/30 14:00:46;;;;;;;13.23;1.23;;;11.30;99.90;;;;;;5053339;28;20177;-76
2022/01/30 14:03:24;;;;;;;0.20;0.20;;;9.80;99.90;;;;;;5034304;28;20213;-75
2022/01/30 14:05:50;;;;;;;1.80;1.70;;;9.40;99.90;;;;;;5052049;28;20198;-76